createdAt,value
2023-04-12T00:01:36.373Z,57.57
2023-04-12T00:04:10.271Z,57.95
2023-04-12T00:06:48.509Z,57.59
2023-04-12T00:09:21.121Z,57.91
2023-04-12T00:11:54.510Z,57.52
2023-04-12T00:14:29.628Z,57.93
2023-04-12T00:17:01.957Z,57.34
2023-04-12T00:19:35.453Z,58.08
2023-04-12T00:22:11.887Z,57.63
2023-04-12T00:24:44.330Z,57.64
2023-04-12T00:27:16.818Z,58.01
2023-04-12T00:29:50.595Z,58.23
2023-04-12T00:32:27.715Z,58.37
2023-04-12T00:35:01.109Z,57.45
2023-04-12T00:37:33.888Z,57.83
2023-04-12T00:40:11.261Z,57.48
2023-04-12T00:42:43.520Z,57.33
2023-04-12T00:45:16.745Z,57.95
2023-04-12T00:47:50.233Z,57.63
2023-04-12T00:50:24.204Z,58.17
2023-04-12T00:52:58.741Z,58.42
2023-04-12T00:55:31.715Z,57.80
2023-04-12T00:58:05.243Z,57.92
2023-04-12T01:00:38.061Z,58.19
2023-04-12T01:03:23.511Z,57.57
2023-04-12T01:06:06.552Z,58.11
2023-04-12T01:08:42.020Z,57.49
2023-04-12T01:11:27.009Z,58.31
2023-04-12T01:14:06.180Z,57.52
2023-04-12T01:16:47.899Z,57.83
2023-04-12T01:19:46.196Z,58.15
2023-04-12T01:22:37.537Z,57.54
2023-04-12T01:25:32.645Z,57.87
2023-04-12T01:28:14.834Z,57.69
2023-04-12T01:30:52.330Z,58.12
2023-04-12T01:33:31.765Z,57.82
2023-04-12T01:36:20.965Z,57.82
2023-04-12T01:38:54.828Z,57.87
2023-04-12T01:41:27.460Z,58.10
2023-04-12T01:44:02.152Z,58.01
2023-04-12T01:46:37.518Z,57.59
2023-04-12T01:49:13.058Z,57.44
2023-04-12T01:52:25.998Z,58.28
2023-04-12T01:55:02.389Z,57.66
2023-04-12T01:57:39.744Z,57.86
2023-04-12T02:00:13.943Z,57.84
2023-04-12T02:02:48.657Z,57.65
2023-04-12T02:05:24.811Z,57.81
2023-04-12T02:07:58.746Z,58.03
2023-04-12T02:10:32.365Z,58.40
2023-04-12T02:13:04.746Z,57.70
2023-04-12T02:15:37.599Z,57.44
2023-04-12T02:18:11.911Z,57.49
2023-04-12T02:20:45.178Z,57.76
2023-04-12T02:23:17.563Z,58.03
2023-04-12T02:25:52.230Z,57.73
2023-04-12T02:28:26.841Z,58.36
2023-04-12T02:31:00.538Z,58.18
2023-04-12T02:33:34.907Z,58.26
2023-04-12T02:36:11.674Z,58.19
2023-04-12T02:38:45.956Z,58.00
2023-04-12T02:41:22.709Z,57.69
2023-04-12T02:43:55.788Z,58.19
2023-04-12T02:46:29.734Z,57.82
2023-04-12T02:49:04.454Z,58.35
2023-04-12T02:51:41.806Z,58.09
2023-04-12T02:54:15.477Z,57.80
2023-04-12T02:57:00.630Z,57.84
2023-04-12T03:00:00.493Z,57.76
2023-04-12T03:02:51.648Z,57.71
2023-04-12T03:05:31.398Z,58.20
2023-04-12T03:08:05.144Z,58.21
2023-04-12T03:10:44.530Z,57.86
2023-04-12T03:13:16.920Z,58.22
2023-04-12T03:15:57.550Z,57.93
2023-04-12T03:18:37.170Z,58.02
2023-04-12T03:21:10.073Z,57.87
2023-04-12T03:23:42.808Z,58.40
2023-04-12T03:26:22.264Z,58.13
2023-04-12T03:29:10.721Z,58.20
2023-04-12T03:31:46.688Z,57.96
2023-04-12T03:34:19.339Z,58.48
2023-04-12T03:36:58.583Z,58.32
2023-04-12T03:39:48.398Z,57.95
2023-04-12T03:42:33.230Z,58.48
2023-04-12T03:45:15.197Z,57.90
2023-04-12T03:47:52.269Z,57.86
2023-04-12T03:50:29.611Z,57.91
2023-04-12T03:53:03.219Z,58.13
2023-04-12T03:55:43.388Z,58.26
2023-04-12T03:58:19.005Z,57.99
2023-04-12T04:00:54.769Z,57.91
2023-04-12T04:03:29.861Z,58.49
2023-04-12T04:06:11.432Z,58.38
2023-04-12T04:08:45.188Z,58.19
2023-04-12T04:11:18.828Z,58.65
2023-04-12T04:13:58.360Z,58.11
2023-04-12T04:16:31.333Z,57.81
2023-04-12T04:19:07.642Z,58.30
2023-04-12T04:21:40.613Z,58.30
2023-04-12T04:24:14.296Z,58.11
2023-04-12T04:26:54.422Z,57.92
2023-04-12T04:29:31.741Z,58.02
2023-04-12T04:32:07.629Z,58.57
2023-04-12T04:34:41.747Z,58.37
2023-04-12T04:37:21.300Z,58.15
2023-04-12T04:39:56.525Z,57.90
2023-04-12T04:42:32.997Z,58.22
2023-04-12T04:45:14.145Z,58.17
2023-04-12T04:47:49.540Z,58.41
2023-04-12T04:50:23.418Z,58.42
2023-04-12T04:52:58.852Z,58.08
2023-04-12T04:55:33.188Z,58.42
2023-04-12T04:58:06.507Z,57.89
2023-04-12T05:00:39.389Z,58.27
2023-04-12T05:03:12.340Z,58.52
2023-04-12T05:05:48.230Z,58.39
2023-04-12T05:08:20.757Z,58.20
2023-04-12T05:10:56.343Z,58.96
2023-04-12T05:13:32.567Z,58.79
2023-04-12T05:16:09.402Z,58.37
2023-04-12T05:18:42.036Z,58.23
2023-04-12T05:21:14.546Z,58.68
2023-04-12T05:23:48.876Z,58.25
2023-04-12T05:26:21.679Z,58.66
2023-04-12T05:28:57.338Z,58.55
2023-04-12T05:31:34.104Z,58.55
2023-04-12T05:34:12.249Z,58.73
2023-04-12T05:36:52.023Z,58.72
2023-04-12T05:39:25.331Z,58.75
2023-04-12T05:42:01.861Z,58.63
2023-04-12T05:44:36.952Z,58.37
2023-04-12T05:47:13.109Z,58.48
2023-04-12T05:49:46.982Z,58.43
2023-04-12T05:52:19.463Z,58.55
2023-04-12T05:54:52.878Z,58.88
2023-04-12T05:57:27.209Z,58.47
2023-04-12T05:59:59.802Z,58.36
2023-04-12T06:02:32.483Z,58.73
2023-04-12T06:05:05.887Z,58.29
2023-04-12T06:07:46.956Z,58.41
2023-04-12T06:10:19.898Z,58.97
2023-04-12T06:12:55.689Z,58.75
2023-04-12T06:15:28.232Z,58.67
2023-04-12T06:18:00.752Z,58.94
2023-04-12T06:20:33.292Z,58.73
2023-04-12T06:23:06.653Z,58.62
2023-04-12T06:25:40.766Z,58.67
2023-04-12T06:28:14.411Z,58.79
2023-04-12T06:30:50.188Z,58.85
2023-04-12T06:33:23.101Z,58.78
2023-04-12T06:35:56.578Z,58.34
2023-04-12T06:38:31.612Z,58.51
2023-04-12T06:41:04.104Z,58.72
2023-04-12T06:43:37.076Z,58.59
2023-04-12T06:46:09.448Z,58.42
2023-04-12T06:48:41.853Z,58.84
2023-04-12T06:51:17.548Z,58.73
2023-04-12T06:53:50.053Z,58.79
2023-04-12T06:56:24.167Z,58.10
2023-04-12T06:58:59.201Z,58.51
2023-04-12T07:01:33.473Z,58.51
2023-04-12T07:04:10.376Z,58.39
2023-04-12T07:06:42.787Z,58.41
2023-04-12T07:09:16.650Z,58.60
2023-04-12T07:11:49.065Z,58.01
2023-04-12T07:14:21.404Z,58.58
2023-04-12T07:16:57.648Z,58.76
2023-04-12T07:19:55.574Z,58.74
2023-04-12T07:40:25.524Z,58.48
2023-04-12T07:42:58.106Z,58.48
2023-04-12T07:45:30.827Z,58.32
2023-04-12T07:48:03.784Z,58.43
2023-04-12T07:50:37.209Z,58.18
2023-04-12T07:53:36.782Z,58.39
2023-04-12T07:56:09.505Z,58.12
2023-04-12T07:58:41.792Z,58.36
2023-04-12T08:01:15.500Z,58.33
2023-04-12T08:03:48.078Z,58.24
2023-04-12T08:06:21.958Z,57.89
2023-04-12T08:08:54.346Z,58.78
2023-04-12T08:11:27.889Z,58.50
2023-04-12T08:14:00.743Z,58.27
2023-04-12T08:16:33.552Z,58.51
2023-04-12T08:19:07.465Z,58.18
2023-04-12T08:21:39.987Z,58.49
2023-04-12T08:24:13.173Z,58.74
2023-04-12T08:26:49.872Z,58.78
2023-04-12T08:29:22.390Z,59.04
2023-04-12T08:31:56.365Z,58.68
2023-04-12T08:34:28.764Z,58.67
2023-04-12T08:37:01.311Z,58.59
2023-04-12T08:39:38.862Z,58.83
2023-04-12T08:42:11.411Z,58.65
2023-04-12T08:44:44.298Z,58.65
2023-04-12T08:47:17.377Z,58.89
2023-04-12T08:49:50.012Z,59.59
2023-04-12T08:52:27.346Z,59.34
2023-04-12T08:55:03.281Z,59.01
2023-04-12T08:57:37.049Z,59.38
2023-04-12T09:00:13.145Z,59.40
2023-04-12T09:02:47.299Z,59.66
2023-04-12T09:05:20.073Z,59.72
2023-04-12T09:07:52.685Z,58.99
2023-04-12T09:10:32.683Z,59.19
2023-04-12T09:13:07.328Z,59.59
2023-04-12T09:15:49.717Z,59.34
2023-04-12T09:18:23.238Z,59.09
2023-04-12T09:21:09.402Z,59.51
2023-04-12T09:23:41.857Z,59.18
2023-04-12T09:26:29.043Z,59.59
2023-04-12T09:29:06.884Z,59.95
2023-04-12T09:31:39.382Z,59.54
2023-04-12T09:34:11.804Z,59.72
2023-04-12T09:36:44.682Z,59.95
2023-04-12T09:39:19.950Z,60.07
2023-04-12T09:42:29.180Z,59.84
2023-04-12T09:45:21.846Z,60.07
2023-04-12T09:47:57.499Z,60.39
2023-04-12T09:50:33.503Z,59.97
2023-04-12T09:53:17.341Z,60.17
2023-04-12T09:55:51.527Z,60.77
2023-04-12T09:58:25.827Z,60.43
2023-04-12T10:01:02.129Z,60.58
2023-04-12T10:03:36.164Z,60.19
2023-04-12T10:06:09.346Z,60.82
2023-04-12T10:08:42.315Z,60.11
2023-04-12T10:11:14.911Z,60.09
2023-04-12T10:13:49.636Z,60.78
2023-04-12T10:16:23.007Z,60.63
2023-04-12T10:18:56.903Z,60.93
2023-04-12T10:25:40.079Z,61.58
2023-04-12T10:31:55.586Z,60.69
2023-04-12T10:34:32.464Z,61.19
2023-04-12T10:37:07.337Z,61.39
2023-04-12T10:39:42.496Z,61.63
2023-04-12T10:42:25.344Z,62.21
2023-04-12T11:18:03.513Z,61.65
2023-04-12T12:52:47.943Z,62.55
2023-04-12T18:35:09.805Z,59.44
2023-04-12T18:37:45.837Z,59.81
2023-04-12T18:40:20.402Z,59.38
2023-04-12T19:10:51.520Z,59.67
2023-04-12T19:28:20.166Z,60.24
2023-04-12T19:35:57.673Z,59.70
2023-04-12T19:50:57.389Z,60.33
2023-04-12T19:53:30.575Z,59.69
2023-04-12T19:56:06.363Z,60.27
2023-04-12T19:58:45.329Z,59.78
2023-04-12T20:01:17.792Z,60.19
2023-04-12T20:03:50.360Z,59.94
2023-04-12T20:06:23.860Z,59.86
2023-04-12T20:08:56.403Z,60.39
2023-04-12T20:11:32.033Z,59.68
2023-04-12T20:14:09.572Z,59.53
2023-04-12T20:16:42.822Z,60.09
2023-04-12T20:19:17.867Z,60.22
2023-04-12T20:22:04.974Z,60.43
2023-04-12T20:37:18.235Z,59.83
2023-04-12T20:39:54.271Z,60.24
2023-04-12T20:42:27.874Z,59.82
2023-04-12T20:45:01.177Z,60.29
2023-04-12T20:47:36.623Z,60.10
2023-04-12T22:01:20.631Z,60.66
2023-04-12T22:06:48.456Z,60.06
2023-04-12T22:09:20.796Z,60.36
2023-04-12T22:19:42.542Z,59.81
2023-04-12T22:22:19.470Z,59.93
2023-04-12T22:24:54.393Z,59.97
2023-04-12T22:27:26.850Z,60.14
2023-04-12T22:30:05.371Z,60.01
2023-04-12T22:33:06.044Z,60.14
2023-04-12T23:00:53.467Z,59.71
2023-04-12T23:03:34.267Z,60.40
2023-04-12T23:06:12.947Z,60.15
2023-04-12T23:08:47.573Z,60.26
2023-04-12T23:11:23.039Z,59.64
2023-04-12T23:13:58.959Z,60.06
2023-04-12T23:16:36.776Z,59.71
2023-04-12T23:19:09.190Z,60.01
2023-04-12T23:21:45.206Z,60.46
2023-04-12T23:24:18.559Z,60.14
2023-04-12T23:26:59.141Z,60.10
2023-04-12T23:29:35.048Z,60.46
2023-04-12T23:32:07.597Z,59.84
2023-04-12T23:34:40.372Z,60.25
2023-04-12T23:37:15.089Z,59.84
2023-04-12T23:39:47.515Z,60.10
2023-04-12T23:42:23.856Z,59.72
